Data for 03/14/2015

Time Sea-Level Adjusted Pressure Absolute Pressure Temperature Relative Humidity Dew Point   
(mb) (inHg) (mb) (inHg) (C) (F) (%) (C) (F)
00:05 1024 30.24 853 25.19 6.8 44.3 31 -9.3 15.3
00:10 1024 30.24 853 25.19 6.7 44 30 -9.6 14.7
00:15 1024 30.24 853 25.19 6.9 44.4 28 -10.4 13.3
00:20 1024 30.24 853 25.19 7.1 44.8 29 -9.8 14.3
00:25 1024 30.24 853 25.19 7.1 44.7 30 -9.5 14.9
00:30 1023 30.21 853 25.19 6.8 44.3 30 -9.4 15
00:35 1023 30.21 853 25.19 6.5 43.7 31 -9.5 14.8
00:40 1023 30.21 853 25.19 6.3 43.3 31 -9.8 14.4
00:45 1023 30.21 852 25.16 6.4 43.6 30 -9.7 14.5
00:50 1023 30.21 852 25.16 6.3 43.3 31 -9.8 14.3
00:55 1023 30.21 852 25.16 6.3 43.3 31 -9.6 14.7
01:00 1023 30.21 852 25.16 6.2 43.2 31 -9.8 14.4
01:05 1023 30.21 852 25.16 6.4 43.5 30 -10.2 13.7
01:10 1023 30.21 852 25.16 6.5 43.7 30 -10 14
01:15 1023 30.21 852 25.16 6.3 43.4 30 -9.9 14.2
01:20 1023 30.21 852 25.16 6.1 43 31 -9.9 14.2
01:25 1023 30.21 852 25.16 6.1 43 31 -10 14.1
01:30 1023 30.21 852 25.16 6.1 43 30 -10.1 13.8
01:35 1023 30.21 852 25.16 6.3 43.3 30 -10.2 13.7
01:40 1023 30.21 852 25.16 6.4 43.5 29 -10.3 13.4
01:45 1023 30.21 852 25.16 6.6 43.9 28 -10.6 13
01:50 1023 30.21 852 25.16 6.8 44.3 28 -10.4 13.2
01:55 1023 30.21 852 25.16 6.7 44 28 -10.5 13.2
02:00 1022 30.18 852 25.16 6.7 44 29 -10.3 13.4
02:05 1022 30.18 852 25.16 6.4 43.5 29 -10.5 13.1
02:10 1022 30.18 852 25.16 6.3 43.4 28 -10.9 12.3
02:15 1022 30.18 852 25.16 6.5 43.8 27 -11.2 11.8
02:20 1022 30.18 852 25.16 6.8 44.2 27 -11.2 11.9
02:25 1022 30.18 851 25.13 6.9 44.3 26 -11.4 11.5
02:30 1022 30.18 852 25.16 6.9 44.4 25 -11.6 11.1
02:35 1022 30.18 852 25.16 7.1 44.7 25 -11.6 11.2
02:40 1022 30.18 852 25.16 7 44.6 25 -11.9 10.6
02:45 1022 30.18 851 25.13 7.5 45.5 24 -11.7 10.9
02:50 1022 30.18 852 25.16 7.6 45.6 23 -12.1 10.2
02:55 1022 30.18 852 25.16 7.7 45.8 23 -12 10.4
03:00 1022 30.18 852 25.16 7.5 45.5 24 -11.9 10.6
03:05 1022 30.18 852 25.16 7.3 45.2 24 -12.1 10.3
03:10 1022 30.18 852 25.16 7.3 45.2 24 -12 10.3
03:15 1022 30.18 851 25.13 7.3 45.2 24 -12.1 10.2
03:20 1022 30.18 851 25.13 7.3 45.1 24 -12 10.5
03:25 1022 30.18 851 25.13 7.1 44.8 25 -11.7 10.9
03:30 1022 30.18 851 25.13 7 44.6 25 -11.8 10.8
03:35 1022 30.18 851 25.13 6.9 44.4 25 -11.8 10.7
03:40 1022 30.18 851 25.13 7 44.7 24 -12.3 9.8
03:45 1022 30.18 851 25.13 7.1 44.7 24 -12.2 10
03:50 1022 30.18 851 25.13 7.2 44.9 24 -12.4 9.7
03:55 1022 30.18 851 25.13 7.1 44.7 25 -11.9 10.6
04:00 1022 30.18 851 25.13 6.9 44.4 25 -12.1 10.3
04:05 1022 30.18 851 25.13 7.1 44.8 24 -12.3 9.9
04:10 1021 30.15 851 25.13 7.2 45 23 -12.4 9.7
04:15 1022 30.18 851 25.13 7.2 44.9 24 -12.1 10.2
04:20 1022 30.18 851 25.13 7 44.7 24 -12.2 10
04:25 1022 30.18 851 25.13 7 44.6 26 -11.2 11.8
04:30 1022 30.18 851 25.13 6.4 43.6 26 -11.9 10.6
04:35 1022 30.18 851 25.13 6.6 43.9 26 -11.8 10.8
04:40 1022 30.18 851 25.13 6.1 43 27 -11.8 10.8
04:45 1022 30.18 851 25.13 6.4 43.6 25 -12.2 10.1
04:50 1022 30.18 851 25.13 6.9 44.4 26 -11.4 11.5
04:55 1021 30.15 851 25.13 6.6 43.8 24 -12.7 9.2
05:00 1021 30.15 851 25.13 6.8 44.2 24 -12.3 9.8
05:05 1022 30.18 851 25.13 6.5 43.7 22 -13.9 6.9
05:10 1022 30.18 851 25.13 7.6 45.7 22 -12.6 9.3
05:15 1021 30.15 851 25.13 7.7 45.9 22 -12.6 9.3
05:20 1021 30.15 851 25.13 7.6 45.7 24 -11.8 10.8
05:25 1021 30.15 851 25.13 7.8 46.1 24 -11.6 11.1
05:30 1021 30.15 850 25.1 7.6 45.7 24 -11.8 10.7
05:35 1021 30.15 850 25.1 7.4 45.2 25 -11.4 11.4
05:40 1021 30.15 850 25.1 6.9 44.4 26 -11.3 11.7
05:45 1021 30.15 850 25.1 6.5 43.8 28 -10.8 12.6
05:50 1021 30.15 850 25.1 6.2 43.2 28 -10.8 12.5
05:55 1021 30.15 850 25.1 6.2 43.1 28 -10.9 12.4
06:00 1021 30.15 850 25.1 6.1 42.9 29 -10.6 12.8
06:05 1021 30.15 850 25.1 6.2 43.1 29 -10.4 13.2
06:10 1021 30.15 850 25.1 6.3 43.3 30 -10 13.9
06:15 1020 30.12 850 25.1 6.3 43.3 30 -10 13.9
06:20 1020 30.12 850 25.1 6.5 43.7 29 -10.1 13.8
06:25 1020 30.12 850 25.1 6.7 44.1 28 -10.3 13.4
06:30 1020 30.12 849 25.07 7.1 44.7 28 -10.3 13.5
06:35 1020 30.12 849 25.07 7.4 45.3 28 -10 14.1
06:40 1020 30.12 849 25.07 7.5 45.5 26 -10.6 13
06:45 1020 30.12 849 25.07 7.7 45.9 27 -10.3 13.5
06:50 1020 30.12 849 25.07 7.7 45.8 27 -10.2 13.6
06:55 1020 30.12 849 25.07 7.9 46.2 26 -10.5 13.2
07:00 1019 30.09 849 25.07 8 46.4 27 -9.8 14.4
07:05 1019 30.09 848 25.04 7.6 45.6 28 -9.7 14.5
07:10 1019 30.09 848 25.04 7.6 45.7 28 -9.8 14.4
07:15 1019 30.09 848 25.04 7.8 46.1 27 -10.3 13.5
07:20 1019 30.09 848 25.04 8.5 47.2 25 -10.2 13.6
07:25 1019 30.09 848 25.04 8.4 47.1 26 -10.3 13.5
07:30 1019 30.09 849 25.07 8.3 46.9 26 -10.2 13.6
07:35 1019 30.09 849 25.07 8.3 47 25 -10.6 12.9
07:40 1019 30.09 849 25.07 8.9 48 23 -11.1 12.1
07:45 1019 30.09 849 25.07 9.6 49.2 21 -11.7 11
07:50 1019 30.09 849 25.07 10.4 50.7 23 -9.8 14.4
07:55 1019 30.09 848 25.04 9.5 49.2 25 -9.4 15.1
08:00 1019 30.09 848 25.04 8.9 47.9 25 -10.3 13.4
08:05 1019 30.09 848 25.04 9 48.1 26 -9.4 15
08:10 1019 30.09 848 25.04 9 48.1 26 -9.5 14.9
08:15 1019 30.09 848 25.04 9.2 48.5 26 -9.3 15.2
08:20 1019 30.09 848 25.04 9.4 49 25 -9.5 15
08:25 1019 30.09 848 25.04 10 49.9 24 -9.5 14.8
08:30 1019 30.09 848 25.04 10.5 50.8 24 -9.2 15.4
08:35 1019 30.09 848 25.04 11.1 51.9 24 -8.9 16
08:40 1019 30.09 848 25.04 11.3 52.3 24 -8.5 16.8
08:45 1019 30.09 848 25.04 11.3 52.3 23 -8.9 15.9
08:50 1019 30.09 848 25.04 11.7 53 23 -9 15.9
08:55 1019 30.09 848 25.04 12 53.6 22 -9.3 15.3
09:00 1019 30.09 848 25.04 12.5 54.5 21 -9 15.8
09:05 1019 30.09 848 25.04 13.3 55.9 19 -9.5 14.8
09:10 1019 30.09 848 25.04 13.5 56.4 20 -9 15.8
09:15 1018 30.06 848 25.04 14 57.3 20 -8.9 16.1
09:20 1018 30.06 847 25.01 14.2 57.6 18 -9.5 14.9
09:25 1018 30.06 847 25.01 14.4 58 18 -9.3 15.3
09:30 1018 30.06 847 25.01 14.4 58 18 -9.8 14.4
09:35 1018 30.06 847 25.01 14.7 58.5 19 -8.9 16
09:40 1018 30.06 847 25.01 15.3 59.5 16 -10.1 13.9
09:45 1018 30.06 847 25.01 16.1 61 15 -10.3 13.5
09:50 1018 30.06 847 25.01 16.5 61.6 17 -8.9 16
09:55 1018 30.06 847 25.01 15.9 60.6 18 -8.6 16.6
10:00 1018 30.06 847 25.01 16.4 61.4 17 -8.7 16.3
10:05 1017 30.03 846 24.98 16.8 62.3 12 -12.6 9.2
10:10 1017 30.03 846 24.98 17.4 63.2 13 -11.7 10.9
10:15 1017 30.03 846 24.98 17.4 63.3 13 -11.8 10.8
10:20 1017 30.03 846 24.98 17.3 63.2 13 -11.7 11
10:25 1017 30.03 846 24.98 17.5 63.4 13 -11.5 11.3
10:30 1017 30.03 846 24.98 17.6 63.7 12 -11.6 11.1
10:35 1017 30.03 846 24.98 17.6 63.6 13 -11.3 11.6
10:40 1017 30.03 846 24.98 17.4 63.4 13 -11.5 11.4
10:45 1017 30.03 846 24.98 17.6 63.7 13 -11.6 11.2
10:50 1017 30.03 846 24.98 17.6 63.7 13 -11.3 11.7
10:55 1017 30.03 846 24.98 17.5 63.5 13 -10.9 12.3
11:00 1017 30.03 846 24.98 17.5 63.6 13 -11 12.2
11:05 1017 30.03 846 24.98 17.6 63.6 13 -11.1 12
11:10 1017 30.03 846 24.98 18 64.3 13 -11.1 11.9
11:15 1016 30 846 24.98 18.1 64.6 12 -11.5 11.2
11:20 1016 30 846 24.98 18 64.5 12 -12 10.5
11:25 1016 30 845 24.95 18.2 64.7 13 -10.9 12.3
11:30 1016 30 845 24.95 18.4 65.1 12 -11 12.2
11:35 1016 30 845 24.95 18.5 65.3 12 -11.3 11.6
11:40 1016 30 845 24.95 18.6 65.5 12 -11.4 11.4
11:45 1016 30 845 24.95 18.9 66 12 -11.4 11.5
11:50 1016 30 845 24.95 18.8 65.8 11 -12 10.3
11:55 1016 30 845 24.95 18.8 65.8 11 -12 10.3
12:00 1016 30 845 24.95 19 66.1 12 -11.5 11.4
12:05 1016 30 845 24.95 18.8 65.8 11 -12 10.3
12:10 1016 30 845 24.95 18.7 65.7 12 -11.6 11.2
12:15 1016 30 845 24.95 18.4 65.1 12 -11.8 10.7
12:20 1016 30 845 24.95 18.7 65.6 11 -12.6 9.4
12:25 1016 30 845 24.95 18.8 65.9 11 -12.1 10.3
12:30 1016 30 845 24.95 18.8 65.8 11 -11.9 10.6
12:35 1016 30 845 24.95 19 66.2 11 -11.9 10.6
12:40 1016 30 845 24.95 19.3 66.7 11 -11.7 10.9
12:45 1016 30 845 24.95 19.1 66.4 12 -11.3 11.6
12:50 1016 30 845 24.95 19.1 66.4 11 -12.2 10
12:55 1016 30 845 24.95 19.1 66.5 10 -13.5 7.7
13:00 1015 29.97 845 24.95 19.2 66.6 10 -13 8.6
13:05 1015 29.97 845 24.95 19.2 66.6 9 -14.3 6.2
13:10 1015 29.97 845 24.95 19.1 66.5 9 -14.1 6.7
13:15 1015 29.97 845 24.95 19.2 66.6 10 -13.6 7.5
13:20 1015 29.97 844 24.92 19.3 66.7 10 -13.1 8.5
13:25 1015 29.97 844 24.92 19.3 66.8 10 -12.7 9.1
13:30 1015 29.97 844 24.92 19.2 66.5 11 -12.2 10
13:35 1015 29.97 844 24.92 19.3 66.7 11 -12.2 10.1
13:40 1015 29.97 844 24.92 19.3 66.7 11 -11.5 11.2
13:45 1015 29.97 844 24.92 19.2 66.5 11 -11.7 11
13:50 1015 29.97 844 24.92 19.1 66.4 11 -11.6 11.1
13:55 1015 29.97 844 24.92 19.4 66.9 12 -11 12.2
14:00 1015 29.97 844 24.92 19.3 66.7 12 -11 12.2
14:05 1015 29.97 844 24.92 19 66.2 12 -10.6 12.9
14:10 1015 29.97 844 24.92 19.1 66.4 13 -10.2 13.7
14:15 1015 29.97 844 24.92 19.1 66.4 13 -10.2 13.6
14:20 1015 29.97 844 24.92 18.8 65.8 13 -10.1 13.8
14:25 1015 29.97 844 24.92 18.7 65.6 13 -10.2 13.6
14:30 1015 29.97 844 24.92 18.7 65.7 13 -10 14
14:35 1015 29.97 844 24.92 18.5 65.3 14 -9.7 14.6
14:40 1015 29.97 844 24.92 18.5 65.3 14 -9.9 14.2
14:45 1015 29.97 844 24.92 18.5 65.3 14 -9.7 14.6
14:50 1015 29.97 844 24.92 18.5 65.2 14 -9.6 14.8
14:55 1015 29.97 844 24.92 18.4 65.2 14 -9.1 15.7
15:00 1015 29.97 844 24.92 18.3 65 14 -9.4 15.2
15:05 1015 29.97 844 24.92 18.2 64.8 14 -9.3 15.2
15:10 1015 29.97 844 24.92 18.2 64.7 15 -9.1 15.7
15:15 1015 29.97 844 24.92 18.2 64.7 15 -9 15.8
15:20 1015 29.97 844 24.92 18.1 64.5 15 -8.8 16.1
15:25 1015 29.97 844 24.92 18.1 64.6 15 -8.7 16.3
15:30 1015 29.97 844 24.92 18.1 64.5 16 -8.1 17.4
15:35 1015 29.97 844 24.92 18.1 64.7 16 -7.8 17.9
15:40 1015 29.97 844 24.92 18.1 64.5 16 -8.2 17.3
15:45 1015 29.97 844 24.92 18 64.4 17 -7.1 19.2
15:50 1015 29.97 845 24.95 18 64.4 18 -6.7 19.9
15:55 1015 29.97 845 24.95 18 64.3 17 -7 19.4
16:00 1015 29.97 845 24.95 18.1 64.5 17 -7 19.4
16:05 1016 30 845 24.95 18.2 64.7 17 -7.3 18.8
16:10 1016 30 845 24.95 18.2 64.8 17 -6.8 19.8
16:15 1016 30 845 24.95 18.2 64.7 17 -7.4 18.7
16:20 1016 30 845 24.95 18.2 64.7 17 -7.5 18.5
16:25 1016 30 845 24.95 18.1 64.6 17 -7.4 18.6
16:30 1016 30 845 24.95 18 64.4 17 -7.2 19
16:35 1016 30 845 24.95 17.9 64.1 18 -6.9 19.6
16:40 1016 30 845 24.95 17.7 63.9 18 -6.8 19.8
16:45 1016 30 845 24.95 17.7 63.8 18 -6.6 20.1
16:50 1016 30 845 24.95 17.6 63.7 19 -6.5 20.3
16:55 1016 30 845 24.95 17.5 63.6 19 -6.1 21
17:00 1016 30 845 24.95 17.5 63.5 19 -6.1 20.9
17:05 1016 30 845 24.95 17.5 63.5 19 -6.3 20.7
17:10 1016 30 845 24.95 17.4 63.3 19 -6.1 21
17:15 1016 30 845 24.95 17.3 63.1 20 -6 21.2
17:20 1016 30 845 24.95 17.2 62.9 20 -6.1 21
17:25 1016 30 845 24.95 17 62.6 21 -5.3 22.4
17:30 1016 30 845 24.95 16.7 62 21 -5.4 22.2
17:35 1016 30 845 24.95 16.5 61.7 22 -5.5 22.2
17:40 1016 30 845 24.95 16.4 61.4 22 -5.1 22.8
17:45 1016 30 845 24.95 16.2 61.1 23 -5 22.9
17:50 1016 30 845 24.95 16 60.8 23 -5.1 22.9
17:55 1016 30 845 24.95 15.9 60.6 23 -5 22.9
18:00 1016 30 845 24.95 15.8 60.5 23 -5.2 22.7
18:05 1016 30 845 24.95 15.8 60.5 23 -5 23.1
18:10 1016 30 845 24.95 15.8 60.5 23 -5.1 22.8
18:15 1016 30 845 24.95 15.7 60.3 23 -5.2 22.6
18:20 1016 30 845 24.95 15.8 60.4 23 -5 23
18:25 1016 30 845 24.95 15.8 60.4 23 -5 23
18:30 1016 30 845 24.95 15.7 60.2 24 -4.9 23.2
18:35 1016 30 845 24.95 15.5 59.8 24 -4.8 23.4
18:40 1016 30 845 24.95 15.4 59.8 24 -4.8 23.3
18:45 1016 30 845 24.95 15.3 59.6 24 -5 23
18:50 1016 30 845 24.95 15.5 59.8 24 -4.9 23.1
18:55 1016 30 845 24.95 15.4 59.7 24 -4.8 23.4
19:00 1016 30 845 24.95 15.3 59.5 25 -4.8 23.4
19:05 1016 30 845 24.95 15.3 59.6 24 -5.1 22.8
19:10 1016 30 845 24.95 15.5 59.8 24 -5 23
19:15 1016 30 845 24.95 15.6 60 24 -4.8 23.4
19:20 1016 30 845 24.95 15.4 59.8 24 -4.9 23.2
19:25 1016 30 845 24.95 15.4 59.7 25 -4.6 23.7
19:30 1016 30 845 24.95 15.4 59.8 25 -4.5 23.8
19:35 1016 30 845 24.95 15.5 59.8 25 -4.3 24.3
19:40 1016 30 845 24.95 15.4 59.7 25 -4.3 24.3
19:45 1016 30 845 24.95 15.2 59.4 26 -4.1 24.6
19:50 1016 30 845 24.95 15 59 26 -4.3 24.2
19:55 1016 30 845 24.95 15 58.9 26 -4.2 24.5
20:00 1016 30 845 24.95 14.8 58.7 26 -4.2 24.4
20:05 1016 30 845 24.95 14.7 58.5 27 -4.2 24.4
20:10 1016 30 845 24.95 14.7 58.4 27 -4.1 24.7
20:15 1016 30 845 24.95 14.5 58.2 27 -4.1 24.6
20:20 1016 30 845 24.95 14.6 58.2 27 -4 24.8
20:25 1016 30 845 24.95 14.6 58.3 28 -3.8 25.2
20:30 1016 30 845 24.95 14.5 58.2 28 -3.6 25.6
20:35 1016 30 845 24.95 14.5 58.2 28 -3.5 25.8
20:40 1016 30 845 24.95 14.7 58.4 29 -3.3 26
20:45 1016 30 846 24.98 14.6 58.3 29 -3.3 26
20:50 1016 30 846 24.98 14.8 58.6 29 -3.2 26.2
20:55 1017 30.03 846 24.98 14.9 58.9 28 -3.1 26.4
21:00 1017 30.03 846 24.98 15 58.9 28 -3.1 26.4
21:05 1017 30.03 846 24.98 15.1 59.1 28 -3 26.5
21:10 1016 30 846 24.98 15.1 59.1 28 -3.3 26.1
21:15 1016 30 846 24.98 15.1 59.3 29 -2.9 26.8
21:20 1017 30.03 846 24.98 14.9 58.7 29 -2.9 26.8
21:25 1017 30.03 846 24.98 14.8 58.6 29 -3.1 26.5
21:30 1017 30.03 846 24.98 15 58.9 29 -3.1 26.5
21:35 1016 30 846 24.98 15.1 59.3 28 -3 26.5
21:40 1016 30 845 24.95 15.1 59.1 29 -2.8 27
21:45 1016 30 845 24.95 14.8 58.6 29 -3 26.7
21:50 1016 30 845 24.95 14.6 58.3 30 -2.8 27
21:55 1016 30 846 24.98 14.4 57.9 30 -3 26.5
22:00 1016 30 846 24.98 14.4 57.9 30 -3 26.5
22:05 1016 30 846 24.98 14.4 57.8 29 -3.1 26.3
22:10 1016 30 846 24.98 14.3 57.8 30 -3.1 26.4
22:15 1017 30.03 846 24.98 14.2 57.6 30 -3.2 26.3
22:20 1017 30.03 846 24.98 14.3 57.7 30 -3.2 26.3
22:25 1017 30.03 846 24.98 14.1 57.4 30 -3.1 26.3
22:30 1016 30 846 24.98 14.1 57.4 30 -3.1 26.4
22:35 1017 30.03 846 24.98 13.8 56.9 31 -2.9 26.8
22:40 1016 30 846 24.98 13.7 56.6 31 -3.3 26.1
22:45 1017 30.03 846 24.98 13.7 56.7 31 -3.2 26.2
22:50 1017 30.03 846 24.98 14 57.3 30 -3.2 26.3
22:55 1017 30.03 846 24.98 13.9 57 31 -2.9 26.8
23:00 1017 30.03 846 24.98 13.6 56.5 32 -2.8 27
23:05 1017 30.03 846 24.98 13.3 55.9 33 -2.7 27.1
23:10 1017 30.03 846 24.98 13.1 55.6 33 -2.6 27.3
23:15 1017 30.03 846 24.98 13.2 55.7 33 -2.5 27.5
23:20 1017 30.03 846 24.98 13.5 56.3 32 -2.8 27
23:25 1017 30.03 846 24.98 14.1 57.3 32 -2.5 27.6
23:30 1017 30.03 846 24.98 14.2 57.5 31 -2.5 27.5
23:35 1017 30.03 846 24.98 14.4 58 31 -2.4 27.7
23:40 1017 30.03 846 24.98 14.4 57.9 31 -2.5 27.6
23:45 1017 30.03 846 24.98 14.3 57.7 31 -2.3 27.8
23:50 1017 30.03 846 24.98 14.2 57.5 32 -2.3 27.9
23:55 1017 30.03 846 24.98 14 57.1 32 -2.4 27.8
24:00 1017 30.03 846 24.98 14 57.2 32 -2.3 27.8